Alba, Pennsylvania
Current Conditions -  °F | °C
As of 12:35 AM on Friday 31 Oct 2014 (Local Time) from KN38 Reporting Station
Overcast Overcast  
Wind Chill: 39°   Ceiling: 3700
Heat Index: 39°   Visibility: 10mi
Dew Point: 34°   Wind: 3mph
Humidity: 81%   Direction: 270°W
Pressure: 30.03"   Gusts: NA
Location:  41.71°N, 76.83°W
Report Text: KN38 310435Z AUTO 27003KT 10SM OVC037 04/01 A3003 RMK AO2
Loading
Personal Weather Stations






























Interactive Weather Map
Tropical Storm Tracking
New forecast layout! Learn more

10-Day Weather Forecast

Advertisements
Track Severe Weather on mobile